Time;durP1;ratioP1;P1;durP2;ratioP2;P2;SDS_P1;SDS_P2;PMS_P1;PMS_P2;Temp;Humidity;BMP_temperature;BMP_pressure;BME280_temperature;BME280_humidity;BME280_pressure;Samples;Min_cycle;Max_cycle;Signal;HPM_P1;HPM_P2
2022/04/18 00:02:18;;;;;;;;;;;9.20;91.80;;;;;;6141338;23;19966;-82
2022/04/18 00:08:05;;;;;;;;;;;9.10;91.40;;;;;;6124714;23;19928;-83
2022/04/18 00:10:33;;;;;;;;;;;9.20;91.50;;;;;;6115055;23;19918;-84
2022/04/18 00:13:01;;;;;;;;;;;9.70;92.20;;;;;;6147597;23;20375;-83
2022/04/18 00:15:29;;;;;;;;;;;9.20;92.10;;;;;;6125484;23;19925;-81
2022/04/18 00:17:58;;;;;;;;;;;9.30;92.50;;;;;;6113042;23;19962;-83
2022/04/18 00:20:29;;;;;;;;;;;9.20;92.40;;;;;;6147304;23;19929;-82
2022/04/18 00:22:57;;;;;;;;;;;9.30;91.70;;;;;;6136434;23;19922;-81
2022/04/18 00:25:25;;;;;;;;;;;9.30;92.90;;;;;;6115727;23;19927;-82
2022/04/18 00:27:57;;;;;;;;;;;9.30;92.30;;;;;;6117425;23;19921;-81
2022/04/18 00:30:29;;;;;;;;;;;9.60;91.40;;;;;;6142788;23;19925;-83
2022/04/18 00:32:58;;;;;;;;;;;9.40;91.20;;;;;;6143533;23;19921;-84
2022/04/18 00:35:27;;;;;;;;;;;7.80;90.60;;;;;;6146122;23;19921;-83
2022/04/18 00:37:58;;;;;;;;;;;9.60;90.90;;;;;;6157862;23;19931;-81
2022/04/18 00:40:29;;;;;;;;;;;9.70;91.60;;;;;;6124770;23;19925;-83
2022/04/18 00:43:01;;;;;;;;;;;9.80;91.00;;;;;;6144071;23;19920;-83
2022/04/18 00:45:30;;;;;;;;;;;9.60;90.90;;;;;;6129396;23;19931;-81
2022/04/18 00:48:00;;;;;;;;;;;9.70;91.00;;;;;;6121606;23;19931;-83
2022/04/18 00:50:29;;;;;;;;;;;9.90;90.70;;;;;;6152111;23;19924;-83
2022/04/18 00:52:57;;;;;;;;;;;9.70;91.10;;;;;;6117305;23;19921;-81
2022/04/18 00:55:26;;;;;;;;;;;9.90;91.10;;;;;;6127783;23;19940;-82
2022/04/18 00:57:58;;;;;;;;;;;9.80;90.90;;;;;;6116765;23;19935;-84
2022/04/18 01:00:26;;;;;;;;;;;9.80;90.70;;;;;;6152791;23;19940;-84
2022/04/18 01:02:55;;;;;;;;;;;10.00;91.30;;;;;;6120458;23;19909;-83
2022/04/18 01:05:23;;;;;;;;;;;10.00;90.80;;;;;;6119880;23;19936;-82
2022/04/18 01:07:52;;;;;;;;;;;10.00;91.40;;;;;;6142225;23;20473;-83
2022/04/18 01:10:24;;;;;;;;;;;10.20;90.80;;;;;;6092291;23;19936;-82
2022/04/18 01:12:53;;;;;;;;;;;10.20;90.90;;;;;;6140306;23;19927;-82
2022/04/18 01:15:33;;;;;;;;;;;10.70;91.40;;;;;;6127579;23;19921;-83
2022/04/18 01:18:36;;;;;;;;;;;10.30;91.20;;;;;;6136242;23;19923;-82
2022/04/18 01:21:28;;;;;;;;;;;10.40;90.80;;;;;;6111117;23;19921;-82
2022/04/18 01:30:17;;;;;;;;;;;10.60;90.60;;;;;;6095327;23;19931;-83
2022/04/18 01:32:46;;;;;;;;;;;10.60;91.10;;;;;;6099560;23;19920;-84
2022/04/18 01:35:14;;;;;;;;;;;10.70;91.10;;;;;;6124433;23;19925;-83
2022/04/18 01:37:47;;;;;;;;;;;10.80;90.90;;;;;;6089700;23;19928;-83
2022/04/18 01:40:18;;;;;;;;;;;10.70;90.80;;;;;;6098289;23;19917;-83
2022/04/18 01:42:48;;;;;;;;;;;10.20;91.00;;;;;;6087369;23;19928;-82
2022/04/18 01:45:20;;;;;;;;;;;10.60;90.40;;;;;;6088396;23;19928;-84
2022/04/18 01:48:11;;;;;;;;;;;10.70;91.20;;;;;;6125348;23;19925;-83
2022/04/18 01:50:39;;;;;;;;;;;10.70;90.00;;;;;;6093100;23;19928;-83
2022/04/18 01:53:08;;;;;;;;;;;10.60;90.40;;;;;;6099812;23;19917;-82
2022/04/18 01:55:37;;;;;;;;;;;10.60;90.70;;;;;;6090510;23;19922;-86
2022/04/18 01:58:05;;;;;;;;;;;10.50;90.70;;;;;;6099029;23;19921;-80
2022/04/18 02:00:33;;;;;;;;;;;10.60;90.80;;;;;;6124426;23;19922;-82
2022/04/18 02:03:03;;;;;;;;;;;10.40;91.50;;;;;;6092590;23;19925;-83
2022/04/18 02:05:33;;;;;;;;;;;10.70;90.70;;;;;;6099291;23;19925;-82
2022/04/18 02:08:07;;;;;;;;;;;10.60;91.20;;;;;;6067138;23;20264;-83
2022/04/18 02:10:39;;;;;;;;;;;10.60;90.50;;;;;;6090328;23;19943;-83
2022/04/18 02:13:13;;;;;;;;;;;10.30;90.80;;;;;;6067433;23;19925;-85
2022/04/18 02:15:48;;;;;;;;;;;10.40;91.20;;;;;;6091317;23;19926;-84
2022/04/18 02:18:21;;;;;;;;;;;10.30;90.90;;;;;;6125641;23;19909;-82
2022/04/18 02:20:55;;;;;;;;;;;9.60;91.30;;;;;;6091009;23;19932;-82
2022/04/18 02:23:23;;;;;;;;;;;10.40;91.40;;;;;;6067602;23;19919;-81
2022/04/18 02:25:52;;;;;;;;;;;10.20;92.00;;;;;;6145993;23;19925;-81
2022/04/18 02:28:21;;;;;;;;;;;10.20;91.60;;;;;;6121098;23;19921;-83
2022/04/18 02:31:01;;;;;;;;;;;10.30;91.60;;;;;;6120906;23;19932;-86
2022/04/18 02:33:33;;;;;;;;;;;10.30;91.60;;;;;;6156889;23;20031;-82
2022/04/18 02:36:02;;;;;;;;;;;10.30;91.50;;;;;;6124145;23;19923;-83
2022/04/18 02:38:30;;;;;;;;;;;10.10;91.90;;;;;;6131791;23;19921;-82
2022/04/18 02:40:58;;;;;;;;;;;10.10;93.10;;;;;;6158436;23;19935;-83
2022/04/18 02:43:27;;;;;;;;;;;8.90;92.40;;;;;;6157492;23;19927;-84
2022/04/18 02:46:10;;;;;;;;;;;8.30;93.50;;;;;;6146181;23;20347;-89
2022/04/18 02:48:44;;;;;;;;;;;10.00;92.40;;;;;;6120922;23;19927;-89
2022/04/18 02:51:17;;;;;;;;;;;9.90;92.90;;;;;;6129181;23;19935;-89
2022/04/18 02:53:48;;;;;;;;;;;8.90;93.90;;;;;;6131601;23;19931;-89
2022/04/18 02:56:22;;;;;;;;;;;9.90;92.80;;;;;;6154281;23;19924;-84
2022/04/18 02:58:52;;;;;;;;;;;10.00;93.70;;;;;;6129582;23;19940;-82
2022/04/18 03:01:23;;;;;;;;;;;9.80;93.60;;;;;;6119911;23;19921;-83
2022/04/18 03:03:52;;;;;;;;;;;9.80;93.40;;;;;;6148148;23;20367;-84
2022/04/18 03:06:20;;;;;;;;;;;9.70;93.60;;;;;;6097092;23;19921;-82
2022/04/18 03:08:48;;;;;;;;;;;10.10;93.70;;;;;;6154358;23;19920;-83
2022/04/18 03:11:18;;;;;;;;;;;9.60;94.90;;;;;;6128409;23;19921;-85
2022/04/18 03:13:47;;;;;;;;;;;9.70;93.80;;;;;;6122431;23;19917;-85
2022/04/18 03:16:33;;;;;;;;;;;9.70;95.20;;;;;;6152726;23;19921;-87
2022/04/18 03:19:04;;;;;;;;;;;9.40;95.60;;;;;;6156360;23;19933;-86
2022/04/18 03:21:36;;;;;;;;;;;10.60;95.10;;;;;;6118765;23;19909;-83
2022/04/18 03:24:08;;;;;;;;;;;8.10;95.70;;;;;;6119026;23;19921;-83
2022/04/18 03:27:06;;;;;;;;;;;9.80;95.80;;;;;;6114961;23;19921;-85
2022/04/18 03:29:40;;;;;;;;;;;9.80;96.10;;;;;;6113111;23;19917;-84
2022/04/18 03:32:18;;;;;;;;;;;9.70;96.40;;;;;;6123764;23;19921;-82
2022/04/18 03:34:49;;;;;;;;;;;9.70;97.00;;;;;;6090371;23;19921;-82
2022/04/18 03:40:09;;;;;;;;;;;9.60;95.90;;;;;;6116589;23;19932;-81
2022/04/18 03:42:37;;;;;;;;;;;9.70;96.40;;;;;;6115362;23;19931;-83
2022/04/18 03:45:20;;;;;;;;;;;10.10;96.60;;;;;;6113419;23;19928;-83
2022/04/18 03:47:48;;;;;;;;;;;9.60;97.30;;;;;;6113233;23;19921;-81
2022/04/18 03:50:16;;;;;;;;;;;9.90;97.40;;;;;;6088926;23;19925;-83
2022/04/18 03:52:44;;;;;;;;;;;9.50;96.90;;;;;;6113017;23;19917;-84
2022/04/18 03:55:34;;;;;;;;;;;9.70;97.50;;;;;;6123214;23;19921;-84
2022/04/18 03:58:12;;;;;;;;;;;7.90;97.40;;;;;;6066682;23;20126;-84
2022/04/18 04:00:42;;;;;;;;;;;9.40;98.10;;;;;;6125559;23;19917;-84
2022/04/18 04:03:14;;;;;;;;;;;9.40;97.20;;;;;;6125885;23;19909;-83
2022/04/18 04:05:58;;;;;;;;;;;9.30;98.70;;;;;;6118454;23;19921;-82
2022/04/18 04:08:31;;;;;;;;;;;9.40;98.00;;;;;;6112468;23;19921;-84
2022/04/18 04:11:06;;;;;;;;;;;9.30;98.00;;;;;;6094415;23;19921;-82
2022/04/18 04:13:40;;;;;;;;;;;9.50;99.60;;;;;;6120229;23;19928;-85
2022/04/18 04:16:15;;;;;;;;;;;9.30;97.80;;;;;;6094139;23;19928;-89
2022/04/18 04:18:49;;;;;;;;;;;9.30;99.20;;;;;;6126425;23;19925;-89
2022/04/18 04:21:21;;;;;;;;;;;9.40;98.30;;;;;;6091019;23;19925;-85
2022/04/18 04:23:55;;;;;;;;;;;9.40;99.10;;;;;;6115988;23;19921;-84
2022/04/18 04:26:34;;;;;;;;;;;9.30;99.80;;;;;;6141189;23;19921;-84
2022/04/18 04:29:03;;;;;;;;;;;9.20;98.60;;;;;;6149150;23;19931;-86
2022/04/18 04:31:39;;;;;;;;;;;9.30;99.10;;;;;;6119793;23;19906;-82
2022/04/18 04:34:10;;;;;;;;;;;9.20;99.90;;;;;;6125933;23;19910;-83
2022/04/18 04:36:48;;;;;;;;;;;9.10;99.90;;;;;;6149339;23;19921;-87
2022/04/18 04:39:21;;;;;;;;;;;8.30;99.90;;;;;;6117059;23;19922;-83
2022/04/18 04:41:49;;;;;;;;;;;9.20;99.90;;;;;;6116734;23;19921;-86
2022/04/18 04:44:23;;;;;;;;;;;9.10;99.90;;;;;;6119450;23;19921;-87
2022/04/18 04:46:58;;;;;;;;;;;9.10;99.90;;;;;;6142717;23;19928;-83
2022/04/18 04:49:29;;;;;;;;;;;9.10;99.90;;;;;;6117846;23;19932;-85
2022/04/18 04:52:19;;;;;;;;;;;9.10;99.90;;;;;;6116829;23;19918;-86
2022/04/18 04:54:51;;;;;;;;;;;9.10;99.90;;;;;;6117229;23;19925;-82
2022/04/18 04:57:28;;;;;;;;;;;9.00;99.90;;;;;;6141210;23;19929;-82
2022/04/18 05:00:21;;;;;;;;;;;9.10;99.90;;;;;;6126215;23;19928;-84
2022/04/18 05:03:22;;;;;;;;;;;9.00;99.90;;;;;;6146132;23;20020;-83
2022/04/18 05:05:53;;;;;;;;;;;9.30;99.90;;;;;;6152549;23;19917;-84
2022/04/18 05:08:40;;;;;;;;;;;9.00;99.90;;;;;;6154836;23;19914;-82
2022/04/18 05:11:35;;;;;;;;;;;8.90;99.90;;;;;;6119896;23;19936;-83
2022/04/18 05:14:07;;;;;;;;;;;9.00;99.90;;;;;;6140093;23;19921;-82
2022/04/18 05:16:56;;;;;;;;;;;9.00;99.90;;;;;;6115533;23;19931;-83
2022/04/18 05:19:39;;;;;;;;;;;10.20;99.90;;;;;;6115411;23;19922;-83
2022/04/18 05:22:27;;;;;;;;;;;9.00;99.90;;;;;;6137126;23;19922;-83
2022/04/18 05:24:57;;;;;;;;;;;9.00;99.90;;;;;;6116972;23;19928;-82
2022/04/18 05:27:38;;;;;;;;;;;9.20;99.90;;;;;;6115115;23;19917;-86
2022/04/18 05:30:32;;;;;;;;;;;7.70;99.90;;;;;;6116640;23;19927;-83
2022/04/18 05:33:03;;;;;;;;;;;9.10;99.90;;;;;;6113263;23;19981;-87
2022/04/18 05:36:00;;;;;;;;;;;9.10;99.90;;;;;;6139037;23;19928;-81
2022/04/18 05:38:34;;;;;;;;;;;9.10;99.90;;;;;;6116432;23;19917;-82
2022/04/18 05:41:10;;;;;;;;;;;9.10;99.90;;;;;;6091908;23;20560;-84
2022/04/18 05:43:39;;;;;;;;;;;9.00;99.90;;;;;;6125967;23;19921;-83
2022/04/18 05:46:09;;;;;;;;;;;9.20;99.90;;;;;;6116737;23;19925;-83
2022/04/18 05:48:37;;;;;;;;;;;9.20;99.90;;;;;;6150727;23;19921;-83
2022/04/18 05:51:06;;;;;;;;;;;9.30;99.90;;;;;;6139420;23;19919;-83
2022/04/18 05:53:34;;;;;;;;;;;9.50;99.90;;;;;;6140981;23;20283;-82
2022/04/18 05:56:17;;;;;;;;;;;9.50;99.90;;;;;;6126023;23;19925;-82
2022/04/18 05:59:00;;;;;;;;;;;9.50;99.90;;;;;;6136927;23;19923;-82
2022/04/18 06:01:52;;;;;;;;;;;9.20;99.90;;;;;;6146361;23;19921;-82
2022/04/18 06:04:59;;;;;;;;;;;9.50;99.90;;;;;;6142446;23;19925;-83
2022/04/18 06:07:48;;;;;;;;;;;9.70;99.90;;;;;;6118046;23;19909;-84
2022/04/18 06:10:42;;;;;;;;;;;8.30;99.90;;;;;;6115448;23;19909;-84
2022/04/18 06:13:38;;;;;;;;;;;10.00;99.90;;;;;;6117056;23;19936;-86
2022/04/18 06:16:11;;;;;;;;;;;10.10;99.90;;;;;;6126881;23;19917;-83
2022/04/18 06:18:45;;;;;;;;;;;10.20;99.90;;;;;;6119316;23;19917;-82
2022/04/18 06:21:13;;;;;;;;;;;10.00;99.90;;;;;;6103185;23;19925;-82
2022/04/18 06:23:45;;;;;;;;;;;10.10;99.90;;;;;;6152564;23;19925;-83
2022/04/18 06:26:37;;;;;;;;;;;10.30;99.90;;;;;;6148105;23;19921;-84
2022/04/18 06:29:12;;;;;;;;;;;10.30;99.90;;;;;;6121962;23;19921;-82
2022/04/18 06:31:49;;;;;;;;;;;9.70;99.90;;;;;;6119423;23;19924;-85
2022/04/18 06:34:20;;;;;;;;;;;12.20;99.90;;;;;;6131873;23;19916;-82
2022/04/18 06:36:59;;;;;;;;;;;10.50;99.90;;;;;;6147226;23;19920;-83
2022/04/18 06:39:37;;;;;;;;;;;10.50;99.90;;;;;;6121357;23;19917;-82
2022/04/18 06:42:16;;;;;;;;;;;10.70;99.90;;;;;;6121892;23;19925;-85
2022/04/18 06:44:55;;;;;;;;;;;10.70;99.90;;;;;;6121290;23;19935;-82
2022/04/18 06:47:26;;;;;;;;;;;10.70;99.90;;;;;;6120688;23;19935;-82
2022/04/18 06:50:22;;;;;;;;;;;9.20;99.90;;;;;;6119007;23;19927;-81
2022/04/18 06:53:28;;;;;;;;;;;12.40;99.90;;;;;;6110115;23;20772;-81
2022/04/18 06:59:29;;;;;;;;;;;11.50;99.90;;;;;;6129900;23;19924;-81
2022/04/18 07:02:11;;;;;;;;;;;11.00;99.90;;;;;;6155003;23;19921;-80
2022/04/18 07:04:44;;;;;;;;;;;11.30;99.90;;;;;;6073516;23;19917;-81
2022/04/18 07:07:13;;;;;;;;;;;11.40;99.90;;;;;;6157904;23;19921;-81
2022/04/18 07:09:41;;;;;;;;;;;11.40;99.90;;;;;;6150848;23;19927;-81
2022/04/18 07:12:23;;;;;;;;;;;11.30;99.90;;;;;;6121532;23;19913;-82
2022/04/18 07:14:59;;;;;;;;;;;11.50;99.90;;;;;;6158196;23;19925;-83
2022/04/18 07:17:33;;;;;;;;;;;10.90;99.90;;;;;;6121599;23;19917;-82
2022/04/18 07:20:29;;;;;;;;;;;11.20;99.90;;;;;;6122504;23;19935;-84
2022/04/18 07:23:03;;;;;;;;;;;11.60;99.90;;;;;;6121455;23;19921;-82
2022/04/18 07:25:45;;;;;;;;;;;11.80;99.90;;;;;;6141122;23;19919;-82
2022/04/18 07:28:33;;;;;;;;;;;11.70;99.90;;;;;;6116802;23;20456;-84
2022/04/18 07:31:02;;;;;;;;;;;11.80;99.90;;;;;;6140810;23;20247;-83
2022/04/18 07:33:35;;;;;;;;;;;12.50;99.90;;;;;;6094412;23;20147;-82
2022/04/18 07:36:14;;;;;;;;;;;10.90;99.90;;;;;;6128581;23;19921;-82
2022/04/18 07:38:49;;;;;;;;;;;12.50;99.90;;;;;;6144394;23;19927;-85
2022/04/18 07:41:30;;;;;;;;;;;11.70;99.90;;;;;;6141545;23;19927;-82
2022/04/18 07:44:03;;;;;;;;;;;11.90;99.90;;;;;;6142112;23;19932;-83
2022/04/18 07:46:34;;;;;;;;;;;10.70;99.90;;;;;;6127557;23;19909;-83
2022/04/18 07:49:11;;;;;;;;;;;11.90;99.90;;;;;;6118508;23;20045;-85
2022/04/18 07:51:51;;;;;;;;;;;12.90;99.90;;;;;;6117079;23;19922;-82
2022/04/18 07:54:29;;;;;;;;;;;13.10;99.90;;;;;;6116414;23;19925;-83
2022/04/18 07:57:04;;;;;;;;;;;12.40;99.90;;;;;;6126607;23;19921;-82
2022/04/18 07:59:46;;;;;;;;;;;12.50;99.90;;;;;;6113549;23;19921;-83
2022/04/18 08:02:19;;;;;;;;;;;12.50;99.90;;;;;;6125295;23;19925;-84
2022/04/18 08:05:09;;;;;;;;;;;12.60;99.90;;;;;;6095585;23;19917;-82
2022/04/18 08:08:13;;;;;;;;;;;13.00;99.90;;;;;;6092211;23;19932;-83
2022/04/18 08:10:56;;;;;;;;;;;11.80;99.90;;;;;;6141506;23;19932;-85
2022/04/18 08:13:40;;;;;;;;;;;13.00;99.90;;;;;;6117563;23;19928;-81
2022/04/18 08:16:29;;;;;;;;;;;12.40;99.90;;;;;;6138454;23;19932;-82
2022/04/18 08:19:07;;;;;;;;;;;13.30;99.90;;;;;;6115785;23;19925;-88
2022/04/18 08:21:57;;;;;;;;;;;13.30;99.90;;;;;;6145333;23;19969;-83
2022/04/18 08:24:30;;;;;;;;;;;13.80;99.90;;;;;;6115151;23;19925;-82
2022/04/18 08:27:32;;;;;;;;;;;13.50;99.90;;;;;;6061807;23;19921;-81
2022/04/18 08:30:13;;;;;;;;;;;13.60;99.80;;;;;;6124661;23;19944;-84
2022/04/18 08:32:54;;;;;;;;;;;12.60;99.90;;;;;;6110683;23;19944;-82
2022/04/18 08:35:32;;;;;;;;;;;13.30;99.70;;;;;;6112512;23;19909;-80
2022/04/18 08:38:00;;;;;;;;;;;13.60;98.90;;;;;;6112054;23;19921;-81
2022/04/18 08:40:33;;;;;;;;;;;13.60;98.40;;;;;;6125461;23;19921;-83
2022/04/18 08:43:08;;;;;;;;;;;13.40;98.40;;;;;;6119307;23;19921;-83
2022/04/18 08:45:41;;;;;;;;;;;12.10;97.50;;;;;;6126152;23;19925;-83
2022/04/18 08:53:52;;;;;;;;;;;13.70;98.20;;;;;;6135521;23;19929;-85
2022/04/18 08:56:24;;;;;;;;;;;13.70;97.70;;;;;;6111752;23;19928;-84
2022/04/18 08:59:01;;;;;;;;;;;13.00;97.30;;;;;;6121929;23;19917;-84
2022/04/18 09:01:34;;;;;;;;;;;14.00;97.50;;;;;;6145993;23;19921;-84
2022/04/18 09:04:40;;;;;;;;;;;13.00;97.20;;;;;;6121980;23;19921;-82
2022/04/18 09:07:23;;;;;;;;;;;14.10;96.70;;;;;;6141280;23;19936;-83
2022/04/18 09:10:07;;;;;;;;;;;14.30;97.00;;;;;;6120036;23;19927;-85
2022/04/18 09:12:44;;;;;;;;;;;14.30;96.90;;;;;;6112343;23;19947;-84
2022/04/18 09:15:30;;;;;;;;;;;14.30;97.00;;;;;;6086850;23;19931;-83
2022/04/18 09:18:16;;;;;;;;;;;14.80;96.20;;;;;;6120910;23;19921;-84
2022/04/18 09:20:50;;;;;;;;;;;14.60;95.90;;;;;;6111512;23;19921;-85
2022/04/18 09:23:47;;;;;;;;;;;;;;;;;;;;;
2022/04/18 09:26:35;;;;;;;;;;;14.60;95.90;;;;;;6087962;23;19921;-83
2022/04/18 09:29:07;;;;;;;;;;;14.50;95.30;;;;;;6061516;23;19921;-84
2022/04/18 09:31:48;;;;;;;;;;;14.70;95.60;;;;;;6112002;23;19939;-82
2022/04/18 09:34:40;;;;;;;;;;;16.60;95.10;;;;;;6109301;23;19925;-83
2022/04/18 09:37:12;;;;;;;;;;;14.60;95.30;;;;;;6122610;23;19922;-82
2022/04/18 09:40:11;;;;;;;;;;;14.60;94.80;;;;;;6097998;23;19917;-82
2022/04/18 09:42:44;;;;;;;;;;;14.70;94.10;;;;;;6121388;23;19927;-83
2022/04/18 09:45:27;;;;;;;;;;;14.60;93.70;;;;;;6097130;23;19921;-83
2022/04/18 09:47:58;;;;;;;;;;;14.70;95.40;;;;;;6086916;23;19931;-83
2022/04/18 09:53:26;;;;;;;;;;;14.90;93.80;;;;;;6109753;23;19932;-82
2022/04/18 09:56:06;;;;;;;;;;;15.00;93.70;;;;;;6118286;23;19927;-83
2022/04/18 09:58:35;;;;;;;;;;;14.50;93.60;;;;;;6084925;23;19917;-81
2022/04/18 10:01:24;;;;;;;;;;;15.10;93.60;;;;;;6082697;23;19921;-84
2022/04/18 10:04:05;;;;;;;;;;;;;;;;;;;;;
2022/04/18 10:06:37;;;;;;;;;;;15.20;93.70;;;;;;6107900;23;19922;-82
2022/04/18 10:09:06;;;;;;;;;;;15.50;93.40;;;;;;6083597;23;19927;-83
2022/04/18 10:11:39;;;;;;;;;;;15.30;93.00;;;;;;6114599;23;19982;-82
2022/04/18 10:14:11;;;;;;;;;;;15.20;92.10;;;;;;6119941;23;20352;-83
2022/04/18 10:16:42;;;;;;;;;;;15.40;92.60;;;;;;6109519;23;19928;-82
2022/04/18 10:19:35;;;;;;;;;;;15.40;92.80;;;;;;6084778;23;19921;-82
2022/04/18 10:22:28;;;;;;;;;;;15.50;92.50;;;;;;6121092;23;19970;-82
2022/04/18 10:25:14;;;;;;;;;;;15.60;92.10;;;;;;6109047;23;19936;-82
2022/04/18 10:28:14;;;;;;;;;;;15.80;90.80;;;;;;6126051;23;19917;-82
2022/04/18 10:30:55;;;;;;;;;;;15.70;90.90;;;;;;6142903;23;19927;-82
2022/04/18 10:33:26;;;;;;;;;;;15.80;90.40;;;;;;6128881;23;19924;-83
2022/04/18 10:36:00;;;;;;;;;;;15.90;90.20;;;;;;6070896;23;19924;-81
2022/04/18 10:38:33;;;;;;;;;;;16.10;90.10;;;;;;6143578;23;19917;-83
2022/04/18 10:41:25;;;;;;;;;;;16.20;89.30;;;;;;6144520;23;19927;-80
2022/04/18 10:43:58;;;;;;;;;;;16.20;88.30;;;;;;6142983;23;19920;-82
2022/04/18 10:46:26;;;;;;;;;;;16.10;89.80;;;;;;6129862;23;19927;-81
2022/04/18 10:48:59;;;;;;;;;;;16.50;88.40;;;;;;6119090;23;19920;-83
2022/04/18 10:51:38;;;;;;;;;;;16.40;86.30;;;;;;6118546;23;19931;-82
2022/04/18 10:54:08;;;;;;;;;;;16.70;87.30;;;;;;6119245;23;19977;-83
2022/04/18 10:56:54;;;;;;;;;;;16.60;85.40;;;;;;6120632;23;19925;-83
2022/04/18 10:59:38;;;;;;;;;;;16.60;83.60;;;;;;6151269;23;20125;-82
2022/04/18 11:02:07;;;;;;;;;;;16.60;83.70;;;;;;6125956;23;19933;-80
2022/04/18 11:04:39;;;;;;;;;;;16.50;84.30;;;;;;6149927;23;19925;-82
2022/04/18 11:07:08;;;;;;;;;;;16.00;83.90;;;;;;6118559;23;19999;-81
2022/04/18 11:09:38;;;;;;;;;;;16.60;84.80;;;;;;6150869;23;19920;-80
2022/04/18 11:12:15;;;;;;;;;;;16.70;84.50;;;;;;6142324;23;19927;-83
2022/04/18 11:14:46;;;;;;;;;;;16.70;84.30;;;;;;6118737;23;20268;-81
2022/04/18 11:17:27;;;;;;;;;;;16.60;83.80;;;;;;6129623;23;19917;-81
2022/04/18 11:19:57;;;;;;;;;;;16.60;83.60;;;;;;6154084;23;19920;-83
2022/04/18 11:22:27;;;;;;;;;;;16.60;84.80;;;;;;6127614;23;19935;-82
2022/04/18 11:24:56;;;;;;;;;;;16.70;84.90;;;;;;6136769;23;19928;-83
2022/04/18 11:27:26;;;;;;;;;;;16.70;84.10;;;;;;6113959;23;19928;-82
2022/04/18 11:29:57;;;;;;;;;;;16.90;83.30;;;;;;6120729;23;20485;-82
2022/04/18 11:32:26;;;;;;;;;;;17.00;83.40;;;;;;6113182;23;19917;-81
2022/04/18 11:34:56;;;;;;;;;;;17.20;82.20;;;;;;6113320;23;19922;-82
2022/04/18 11:37:26;;;;;;;;;;;17.00;81.40;;;;;;6121236;23;19925;-85
2022/04/18 11:40:03;;;;;;;;;;;17.70;81.40;;;;;;6113422;23;19928;-84
2022/04/18 11:43:00;;;;;;;;;;;17.60;80.60;;;;;;6141354;23;19931;-86
2022/04/18 11:46:05;;;;;;;;;;;17.70;82.10;;;;;;6123663;23;19931;-85
2022/04/18 11:48:54;;;;;;;;;;;18.10;80.90;;;;;;6124072;23;19925;-84
2022/04/18 11:51:51;;;;;;;;;;;18.10;79.90;;;;;;6136767;23;19931;-83
2022/04/18 11:54:19;;;;;;;;;;;18.50;77.30;;;;;;6124613;23;19925;-84
2022/04/18 11:56:56;;;;;;;;;;;18.70;78.80;;;;;;6137736;23;19921;-83
2022/04/18 11:59:28;;;;;;;;;;;18.40;76.10;;;;;;6114439;23;19928;-84
2022/04/18 12:07:55;;;;;;;;;;;17.80;74.50;;;;;;6111089;23;19931;-83
2022/04/18 12:10:44;;;;;;;;;;;18.40;75.10;;;;;;6112359;23;19921;-83
2022/04/18 12:13:39;;;;;;;;;;;18.60;74.80;;;;;;6101183;23;19921;-83
2022/04/18 12:16:11;;;;;;;;;;;18.60;74.50;;;;;;6110133;23;19917;-84
2022/04/18 12:19:11;;;;;;;;;;;18.20;75.50;;;;;;6130171;23;19932;-85
2022/04/18 12:21:50;;;;;;;;;;;18.70;74.40;;;;;;6110219;23;19921;-83
2022/04/18 12:24:38;;;;;;;;;;;18.70;72.80;;;;;;6112214;23;19935;-82
2022/04/18 12:27:08;;;;;;;;;;;18.70;69.20;;;;;;6115824;23;19924;-85
2022/04/18 12:29:52;;;;;;;;;;;18.80;70.10;;;;;;6142155;23;19931;-84
2022/04/18 12:32:28;;;;;;;;;;;19.00;68.60;;;;;;6090626;23;19921;-84
2022/04/18 12:34:57;;;;;;;;;;;19.10;69.10;;;;;;6113597;23;19932;-85
2022/04/18 12:40:39;;;;;;;;;;;19.30;67.40;;;;;;6170350;23;19924;-84
2022/04/18 12:43:28;;;;;;;;;;;19.30;64.80;;;;;;6144554;23;19924;-83
2022/04/18 12:46:09;;;;;;;;;;;19.50;64.80;;;;;;6144463;23;19931;-83
2022/04/18 12:48:48;;;;;;;;;;;19.50;64.40;;;;;;6147607;23;19934;-82
2022/04/18 12:51:31;;;;;;;;;;;19.50;61.60;;;;;;6181101;23;19920;-83
2022/04/18 12:53:59;;;;;;;;;;;19.60;60.20;;;;;;6146832;23;19934;-83
2022/04/18 12:56:30;;;;;;;;;;;19.40;60.80;;;;;;6178902;23;19924;-84
2022/04/18 12:59:04;;;;;;;;;;;19.40;60.50;;;;;;6144733;23;20228;-83
2022/04/18 13:01:44;;;;;;;;;;;19.30;57.60;;;;;;6170852;23;19931;-84
2022/04/18 13:04:26;;;;;;;;;;;19.20;58.80;;;;;;6171592;23;19931;-84
2022/04/18 13:06:56;;;;;;;;;;;19.20;57.70;;;;;;6181492;23;20277;-83
2022/04/18 13:09:29;;;;;;;;;;;19.30;56.60;;;;;;6169929;23;20075;-84
2022/04/18 13:12:05;;;;;;;;;;;19.60;59.50;;;;;;6145269;23;19920;-84
2022/04/18 13:14:59;;;;;;;;;;;19.40;59.10;;;;;;6147601;23;19920;-83
2022/04/18 13:17:35;;;;;;;;;;;21.30;59.60;;;;;;6121912;23;19931;-84
2022/04/18 13:20:20;;;;;;;;;;;19.50;59.80;;;;;;6170727;23;19927;-84
2022/04/18 13:22:59;;;;;;;;;;;19.40;60.70;;;;;;6147713;23;19927;-83
2022/04/18 13:25:38;;;;;;;;;;;19.40;59.00;;;;;;6175496;23;19931;-82
2022/04/18 13:28:10;;;;;;;;;;;19.50;60.20;;;;;;6149997;23;19921;-83
2022/04/18 13:30:44;;;;;;;;;;;19.50;60.10;;;;;;6146683;23;19925;-84
2022/04/18 13:33:30;;;;;;;;;;;20.00;59.50;;;;;;6145724;23;19925;-83
2022/04/18 13:36:37;;;;;;;;;;;19.60;60.30;;;;;;6179264;23;19910;-83
2022/04/18 13:39:16;;;;;;;;;;;19.90;59.80;;;;;;6142782;23;19925;-84
2022/04/18 13:41:47;;;;;;;;;;;19.90;59.70;;;;;;6174908;23;19931;-84
2022/04/18 13:44:38;;;;;;;;;;;20.10;60.30;;;;;;6146500;23;19925;-83
2022/04/18 13:47:16;;;;;;;;;;;19.90;59.40;;;;;;6142592;23;19925;-86
2022/04/18 13:49:59;;;;;;;;;;;19.30;58.30;;;;;;6118431;23;19925;-84
2022/04/18 13:52:30;;;;;;;;;;;20.10;59.30;;;;;;6143940;23;19909;-84
2022/04/18 13:54:59;;;;;;;;;;;20.40;59.70;;;;;;6144005;23;19921;-83
2022/04/18 13:57:39;;;;;;;;;;;21.40;61.70;;;;;;6142140;23;19921;-85
2022/04/18 14:00:19;;;;;;;;;;;20.60;60.30;;;;;;6141220;23;19912;-83
2022/04/18 14:02:50;;;;;;;;;;;20.70;60.40;;;;;;6142179;23;19925;-83
2022/04/18 14:05:27;;;;;;;;;;;20.90;59.80;;;;;;6143940;23;19925;-80
2022/04/18 14:07:59;;;;;;;;;;;21.10;62.10;;;;;;6150739;23;19924;-83
2022/04/18 14:10:33;;;;;;;;;;;21.00;59.00;;;;;;6128132;23;19921;-83
2022/04/18 14:13:05;;;;;;;;;;;21.00;61.50;;;;;;6139479;23;19935;-87
2022/04/18 14:21:14;;;;;;;;;;;22.00;58.80;;;;;;6127609;23;19926;-88
2022/04/18 14:24:13;;;;;;;;;;;22.10;58.90;;;;;;6133430;23;19931;-87
2022/04/18 14:26:41;;;;;;;;;;;22.20;58.00;;;;;;6104870;23;19928;-88
2022/04/18 14:29:08;;;;;;;;;;;22.30;57.50;;;;;;6129327;23;19921;-87
2022/04/18 14:31:38;;;;;;;;;;;22.40;58.50;;;;;;6126831;23;19925;-86
2022/04/18 14:34:06;;;;;;;;;;;22.40;57.50;;;;;;6129785;23;19925;-87
2022/04/18 14:36:34;;;;;;;;;;;22.20;57.00;;;;;;6137025;23;19931;-88
2022/04/18 14:39:03;;;;;;;;;;;22.10;57.80;;;;;;6116457;23;19931;-87
2022/04/18 14:41:34;;;;;;;;;;;22.10;57.30;;;;;;6169277;23;19921;-87
2022/04/18 14:44:02;;;;;;;;;;;22.10;57.10;;;;;;6135807;23;19973;-88
2022/04/18 14:46:32;;;;;;;;;;;22.40;57.70;;;;;;6135064;23;19925;-86
2022/04/18 14:49:04;;;;;;;;;;;22.30;57.80;;;;;;6105687;23;19920;-86
2022/04/18 14:51:32;;;;;;;;;;;22.40;55.90;;;;;;6133919;23;19925;-88
2022/04/18 14:54:02;;;;;;;;;;;21.80;55.20;;;;;;6103665;23;19925;-89
2022/04/18 14:56:30;;;;;;;;;;;22.20;56.20;;;;;;6130260;23;19925;-87
2022/04/18 14:58:57;;;;;;;;;;;22.10;55.40;;;;;;6134334;23;19944;-87
2022/04/18 15:01:27;;;;;;;;;;;22.00;55.00;;;;;;6138493;23;19955;-88
2022/04/18 15:03:55;;;;;;;;;;;22.30;55.50;;;;;;6161275;23;19925;-88
2022/04/18 15:06:24;;;;;;;;;;;21.70;55.00;;;;;;6111648;23;20333;-89
2022/04/18 15:08:52;;;;;;;;;;;21.60;55.10;;;;;;6139665;23;19925;-87
2022/04/18 15:11:23;;;;;;;;;;;21.50;55.50;;;;;;6109837;23;19925;-91
2022/04/18 15:13:55;;;;;;;;;;;21.40;54.30;;;;;;6132753;23;19932;-89
2022/04/18 15:16:23;;;;;;;;;;;21.30;54.60;;;;;;6138379;23;19924;-87
2022/04/18 15:18:50;;;;;;;;;;;21.20;54.70;;;;;;6136532;23;19921;-87
2022/04/18 15:21:19;;;;;;;;;;;21.10;55.30;;;;;;6157464;23;19928;-89
2022/04/18 15:23:51;;;;;;;;;;;21.00;55.40;;;;;;6132249;23;20296;-86
2022/04/18 15:26:20;;;;;;;;;;;21.30;56.20;;;;;;6129870;23;20316;-88
2022/04/18 15:28:47;;;;;;;;;;;21.30;55.10;;;;;;6136994;23;19924;-87
2022/04/18 15:34:02;;;;;;;;;;;21.80;51.60;;;;;;6134188;23;19927;-86
2022/04/18 15:36:32;;;;;;;;;;;22.00;53.50;;;;;;6162749;23;20261;-88
2022/04/18 15:39:02;;;;;;;;;;;22.30;53.60;;;;;;6135474;23;20337;-87
2022/04/18 15:41:31;;;;;;;;;;;22.60;53.80;;;;;;6137457;23;19931;-87
2022/04/18 15:43:59;;;;;;;;;;;23.00;52.90;;;;;;6118309;23;19920;-86
2022/04/18 15:46:31;;;;;;;;;;;23.30;53.60;;;;;;6145960;23;20538;-86
2022/04/18 15:48:59;;;;;;;;;;;23.40;52.60;;;;;;6165126;23;19921;-87
2022/04/18 15:51:29;;;;;;;;;;;23.50;52.40;;;;;;6161097;23;19928;-87
2022/04/18 15:53:57;;;;;;;;;;;23.60;51.60;;;;;;6165628;23;19925;-86
2022/04/18 15:56:27;;;;;;;;;;;23.60;52.50;;;;;;6134706;23;19920;-84
2022/04/18 15:59:00;;;;;;;;;;;23.70;52.20;;;;;;6163236;23;19936;-88